Weather at Poitiers-Biard Airport

Public forecast

Using degrees Celsius for public forecast. Weather courtesy of forecast.io.

Current aviation weather report (METAR) for Poitiers-Biard Airport

Retrieved 2021/09/21 13:30 UTC (9 minutes ago):

LFBI 211330Z AUTO 04011KT 9999 BKN038 BKN044 19/10 Q1027 NOSIG

Aviation forecast (TAF) for Poitiers-Biard Airport

Retrieved 2021/09/21 12:42 UTC (57 minutes ago):

TAF LFBI 211100Z 2112/2212 04010KT 9999 BKN030 PROB40 2201/2208 4000 BR PROB30 2203/2208 0600 FG VV///